createdAt,value
2017-05-14T00:00:04.184Z,12.16
2017-05-14T00:02:33.273Z,12.08
2017-05-14T00:05:02.915Z,12.52
2017-05-14T00:07:33.001Z,12.54
2017-05-14T00:10:03.666Z,13.36
2017-05-14T00:12:33.179Z,12.44
2017-05-14T00:15:02.984Z,13.20
2017-05-14T00:17:30.879Z,12.04
2017-05-14T00:20:00.121Z,11.94
2017-05-14T00:22:28.242Z,12.94
2017-05-14T00:24:56.273Z,12.28
2017-05-14T00:27:24.089Z,13.18
2017-05-14T00:29:53.425Z,12.22
2017-05-14T00:32:20.997Z,14.60
2017-05-14T00:34:48.350Z,12.68
2017-05-14T00:37:15.525Z,11.06
2017-05-14T00:39:42.675Z,12.84
2017-05-14T00:42:09.795Z,13.52
2017-05-14T00:44:36.938Z,12.82
2017-05-14T00:47:04.043Z,12.74
2017-05-14T00:49:31.166Z,12.22
2017-05-14T00:51:58.311Z,12.90
2017-05-14T00:54:25.414Z,12.08
2017-05-14T00:56:53.329Z,11.10
2017-05-14T00:59:20.558Z,12.58
2017-05-14T01:01:48.671Z,12.02
2017-05-14T01:04:15.792Z,11.34
2017-05-14T01:06:43.059Z,13.28
2017-05-14T01:09:10.197Z,11.52
2017-05-14T01:11:38.155Z,11.92
2017-05-14T01:14:10.203Z,12.14
2017-05-14T01:16:38.085Z,12.40
2017-05-14T01:19:07.151Z,12.60
2017-05-14T01:21:35.716Z,11.26
2017-05-14T01:24:06.672Z,13.18
2017-05-14T01:26:35.792Z,13.94
2017-05-14T01:29:03.820Z,12.68
2017-05-14T01:31:34.139Z,13.36
2017-05-14T01:34:05.068Z,11.92
2017-05-14T01:36:34.573Z,12.18
2017-05-14T01:39:05.821Z,13.26
2017-05-14T01:41:33.676Z,12.98
2017-05-14T01:44:02.379Z,11.92
2017-05-14T01:46:33.045Z,11.58
2017-05-14T01:49:00.828Z,12.58
2017-05-14T01:51:29.077Z,12.16
2017-05-14T01:53:57.014Z,13.00
2017-05-14T01:56:25.308Z,13.00
2017-05-14T01:58:53.803Z,14.14
2017-05-14T02:01:22.669Z,13.88
2017-05-14T02:03:53.054Z,13.54
2017-05-14T02:06:22.274Z,14.30
2017-05-14T02:08:50.324Z,13.98
2017-05-14T02:11:18.678Z,14.22
2017-05-14T02:13:48.131Z,15.30
2017-05-14T02:16:16.772Z,13.56
2017-05-14T02:18:44.971Z,14.04
2017-05-14T02:21:13.527Z,14.54
2017-05-14T02:23:42.488Z,14.82
2017-05-14T02:26:11.128Z,14.04
2017-05-14T02:28:39.791Z,14.58
2017-05-14T02:31:09.652Z,14.42
2017-05-14T02:33:38.135Z,14.68
2017-05-14T02:36:06.493Z,15.32
2017-05-14T02:38:35.176Z,15.04
2017-05-14T02:41:02.938Z,14.92
2017-05-14T02:43:30.345Z,14.56
2017-05-14T02:46:01.139Z,15.16
2017-05-14T02:48:29.268Z,17.96
2017-05-14T02:50:56.617Z,16.78
2017-05-14T02:53:24.011Z,17.38
2017-05-14T02:55:51.425Z,17.22
2017-05-14T02:58:18.750Z,17.00
2017-05-14T03:00:47.352Z,17.92
2017-05-14T03:03:15.176Z,18.34
2017-05-14T03:05:43.945Z,17.04
2017-05-14T03:08:12.250Z,17.20
2017-05-14T03:10:39.980Z,16.58
2017-05-14T03:13:08.144Z,16.76
2017-05-14T03:15:36.489Z,18.28
2017-05-14T03:18:03.851Z,17.88
2017-05-14T03:20:31.272Z,16.84
2017-05-14T03:22:59.956Z,16.88
2017-05-14T03:25:28.195Z,17.76
2017-05-14T03:27:56.559Z,17.08
2017-05-14T03:30:24.782Z,17.72
2017-05-14T03:32:54.013Z,17.30
2017-05-14T03:35:22.457Z,18.06
2017-05-14T03:37:50.243Z,17.76
2017-05-14T03:40:17.991Z,17.84
2017-05-14T03:42:47.567Z,18.54
2017-05-14T03:45:15.438Z,18.18
2017-05-14T03:47:45.353Z,17.32
2017-05-14T03:50:14.856Z,16.72
2017-05-14T03:52:42.824Z,18.08
2017-05-14T03:55:11.450Z,17.64
2017-05-14T03:57:39.141Z,17.58
2017-05-14T04:00:06.969Z,18.34
2017-05-14T04:02:34.498Z,17.66
2017-05-14T04:05:02.202Z,17.38
2017-05-14T04:07:30.236Z,17.36
2017-05-14T04:09:57.851Z,18.18
2017-05-14T04:12:25.221Z,17.78
2017-05-14T04:14:52.586Z,16.70
2017-05-14T04:17:20.212Z,17.98
2017-05-14T04:19:48.711Z,17.94
2017-05-14T04:22:16.967Z,16.20
2017-05-14T04:24:47.638Z,17.72
2017-05-14T04:27:16.622Z,17.48
2017-05-14T04:29:45.673Z,16.62
2017-05-14T04:32:14.122Z,19.40
2017-05-14T04:34:42.429Z,18.02
2017-05-14T04:37:10.734Z,16.84
2017-05-14T04:39:38.916Z,18.50
2017-05-14T04:42:07.601Z,16.80
2017-05-14T04:44:34.915Z,18.34
2017-05-14T04:47:02.038Z,18.18
2017-05-14T04:49:30.149Z,17.38
2017-05-14T04:51:57.995Z,18.30
2017-05-14T04:54:26.138Z,17.50
2017-05-14T04:56:53.483Z,18.04
2017-05-14T04:59:21.787Z,18.68
2017-05-14T05:01:51.847Z,18.86
2017-05-14T05:04:20.123Z,19.36
2017-05-14T05:06:48.763Z,18.44
2017-05-14T05:09:24.285Z,18.84
2017-05-14T05:11:52.347Z,17.36
2017-05-14T05:14:20.608Z,18.56
2017-05-14T05:16:48.258Z,18.50
2017-05-14T05:19:16.638Z,17.72
2017-05-14T05:21:45.391Z,18.48
2017-05-14T05:24:13.483Z,17.54
2017-05-14T05:26:41.397Z,17.72
2017-05-14T05:29:12.231Z,18.06
2017-05-14T05:31:39.656Z,17.70
2017-05-14T05:34:06.827Z,16.02
2017-05-14T05:36:33.982Z,18.24
2017-05-14T05:39:01.094Z,17.38
2017-05-14T05:41:28.221Z,16.54
2017-05-14T05:43:56.098Z,16.14
2017-05-14T05:46:23.253Z,15.48
2017-05-14T05:48:50.366Z,16.66
2017-05-14T05:51:17.494Z,16.74
2017-05-14T05:53:44.645Z,15.20
2017-05-14T05:56:11.823Z,15.84
2017-05-14T05:58:39.003Z,16.48
2017-05-14T06:01:06.137Z,15.58
2017-05-14T06:03:33.261Z,14.82
2017-05-14T06:06:00.380Z,14.20
2017-05-14T06:08:27.534Z,13.62
2017-05-14T06:10:54.705Z,13.80
2017-05-14T06:13:21.828Z,13.72
2017-05-14T06:15:48.983Z,15.10
2017-05-14T06:18:16.090Z,13.66
2017-05-14T06:20:43.271Z,13.84
2017-05-14T06:23:10.377Z,13.80
2017-05-14T06:25:37.519Z,14.28
2017-05-14T06:28:04.637Z,13.46
2017-05-14T06:30:32.534Z,14.74
2017-05-14T06:33:00.421Z,13.80
2017-05-14T06:35:27.674Z,14.18
2017-05-14T06:37:56.419Z,12.80
2017-05-14T06:40:24.389Z,14.24
2017-05-14T06:42:52.321Z,14.52
2017-05-14T06:45:19.518Z,13.98
2017-05-14T06:47:46.681Z,11.96
2017-05-14T06:50:16.993Z,9.86
2017-05-14T06:52:44.131Z,10.10
2017-05-14T06:55:12.008Z,8.32
2017-05-14T06:57:39.114Z,8.92
2017-05-14T07:00:06.390Z,9.54
2017-05-14T07:02:34.266Z,7.76
2017-05-14T07:05:01.406Z,8.54
2017-05-14T07:07:29.361Z,9.08
2017-05-14T07:09:56.566Z,9.16
2017-05-14T07:12:23.691Z,9.60
2017-05-14T07:14:50.801Z,8.24
2017-05-14T07:17:17.917Z,9.18
2017-05-14T07:19:45.166Z,9.12
2017-05-14T07:22:12.478Z,8.88
2017-05-14T07:24:40.401Z,9.20
2017-05-14T07:27:07.539Z,7.80
2017-05-14T07:29:34.692Z,8.32
2017-05-14T07:32:01.887Z,8.06
2017-05-14T07:34:29.821Z,7.52
2017-05-14T07:36:56.938Z,7.48
2017-05-14T07:39:24.025Z,7.02
2017-05-14T07:41:51.347Z,6.74
2017-05-14T07:44:18.499Z,7.52
2017-05-14T07:46:45.625Z,8.44
2017-05-14T07:49:12.803Z,6.86
2017-05-14T07:51:39.922Z,7.02
2017-05-14T07:54:07.047Z,7.20
2017-05-14T07:56:34.206Z,6.94
2017-05-14T07:59:01.338Z,6.66
2017-05-14T08:01:28.466Z,5.82
2017-05-14T08:03:55.665Z,5.12
2017-05-14T08:06:22.768Z,5.32
2017-05-14T08:08:49.892Z,5.38
2017-05-14T08:11:17.390Z,5.58
2017-05-14T08:13:44.737Z,5.42
2017-05-14T08:16:12.145Z,5.88
2017-05-14T08:18:39.570Z,5.08
2017-05-14T08:21:07.118Z,4.72
2017-05-14T08:23:34.817Z,5.50
2017-05-14T08:26:02.230Z,5.62
2017-05-14T08:28:29.802Z,5.76
2017-05-14T08:30:57.330Z,4.14
2017-05-14T08:33:24.622Z,4.20
2017-05-14T08:35:52.079Z,4.22
2017-05-14T08:38:19.490Z,3.70
2017-05-14T08:40:47.209Z,3.88
2017-05-14T08:43:14.789Z,4.64
2017-05-14T08:45:42.462Z,4.76
2017-05-14T08:48:10.058Z,4.12
2017-05-14T08:50:37.619Z,4.64
2017-05-14T08:53:05.102Z,4.90
2017-05-14T08:55:32.582Z,4.68
2017-05-14T08:58:00.236Z,4.72
2017-05-14T09:00:27.778Z,4.90
2017-05-14T09:02:55.462Z,4.62
2017-05-14T09:05:22.826Z,4.84
2017-05-14T09:07:50.301Z,5.20
2017-05-14T09:10:17.881Z,5.06
2017-05-14T09:12:45.326Z,5.28
2017-05-14T09:15:12.955Z,5.18
2017-05-14T09:17:41.097Z,5.84
2017-05-14T09:20:09.472Z,5.80
2017-05-14T09:22:37.803Z,5.22
2017-05-14T09:25:06.078Z,4.60
2017-05-14T09:27:33.605Z,4.58
2017-05-14T09:30:01.153Z,4.54
2017-05-14T09:32:28.584Z,4.18
2017-05-14T09:34:56.784Z,3.62
2017-05-14T09:37:24.401Z,4.12
2017-05-14T09:39:52.031Z,5.12
2017-05-14T09:42:19.466Z,4.54
2017-05-14T09:44:49.507Z,4.40
2017-05-14T09:47:17.835Z,5.02
2017-05-14T09:49:45.178Z,5.12
2017-05-14T09:52:12.521Z,4.64
2017-05-14T09:54:39.874Z,4.92
2017-05-14T09:57:07.225Z,4.60
2017-05-14T09:59:34.590Z,3.82
2017-05-14T10:02:02.009Z,4.78
2017-05-14T10:04:29.637Z,4.60
2017-05-14T10:06:57.121Z,5.26
2017-05-14T10:09:24.753Z,4.60
2017-05-14T10:11:52.200Z,5.10
2017-05-14T10:14:20.393Z,5.48
2017-05-14T10:16:47.768Z,4.72
2017-05-14T10:19:15.244Z,5.04
2017-05-14T10:21:43.397Z,5.16
2017-05-14T10:24:10.963Z,3.94
2017-05-14T10:26:38.565Z,3.98
2017-05-14T10:29:06.848Z,3.52
2017-05-14T10:31:34.397Z,3.26
2017-05-14T10:34:01.795Z,4.00
2017-05-14T10:36:30.018Z,3.82
2017-05-14T10:38:58.134Z,4.32
2017-05-14T10:41:25.550Z,4.36
2017-05-14T10:43:53.097Z,4.78
2017-05-14T10:46:20.446Z,4.76
2017-05-14T10:48:47.690Z,3.30
2017-05-14T10:51:15.302Z,4.20
2017-05-14T10:53:42.686Z,4.40
2017-05-14T10:56:10.549Z,4.90
2017-05-14T10:58:37.747Z,4.56
2017-05-14T11:01:04.887Z,4.40
2017-05-14T11:03:32.005Z,4.20
2017-05-14T11:05:59.134Z,4.20
2017-05-14T11:08:26.282Z,4.38
2017-05-14T11:10:53.426Z,5.64
2017-05-14T11:13:20.546Z,4.52
2017-05-14T11:15:47.665Z,3.54
2017-05-14T11:18:14.809Z,4.58
2017-05-14T11:20:41.922Z,4.20
2017-05-14T11:23:09.761Z,5.48
2017-05-14T11:25:36.896Z,3.48
2017-05-14T11:28:04.025Z,3.68
2017-05-14T11:30:31.145Z,3.70
2017-05-14T11:32:58.297Z,3.24
2017-05-14T11:35:26.198Z,4.26
2017-05-14T11:37:53.314Z,3.30
2017-05-14T11:40:20.498Z,2.66
2017-05-14T11:42:47.674Z,2.98
2017-05-14T11:45:14.794Z,2.46
2017-05-14T11:47:41.913Z,2.14
2017-05-14T11:50:09.110Z,2.54
2017-05-14T11:52:37.194Z,2.42
2017-05-14T11:55:04.322Z,3.34
2017-05-14T11:57:31.570Z,2.82
2017-05-14T11:59:58.737Z,3.40
2017-05-14T12:02:25.941Z,3.60
2017-05-14T12:04:53.110Z,3.22
2017-05-14T12:07:20.219Z,2.90
2017-05-14T12:09:47.345Z,3.50
2017-05-14T12:12:14.437Z,3.68
2017-05-14T12:14:41.637Z,3.42
2017-05-14T12:17:08.746Z,4.14
2017-05-14T12:19:35.870Z,3.38
2017-05-14T12:22:03.029Z,3.62
2017-05-14T12:24:30.144Z,3.42
2017-05-14T12:26:57.281Z,3.48
2017-05-14T12:29:25.137Z,3.90
2017-05-14T12:31:52.251Z,3.90
2017-05-14T12:34:19.362Z,3.70
2017-05-14T12:36:46.522Z,3.50
2017-05-14T12:39:13.637Z,3.58
2017-05-14T12:41:40.748Z,3.60
2017-05-14T12:44:07.877Z,3.72
2017-05-14T12:46:35.041Z,3.44
2017-05-14T12:49:02.190Z,3.00
2017-05-14T12:51:29.337Z,2.78
2017-05-14T12:53:56.438Z,2.58
2017-05-14T12:56:24.297Z,2.74
2017-05-14T12:58:52.194Z,2.30
2017-05-14T13:01:19.334Z,2.46
2017-05-14T13:03:46.538Z,2.80
2017-05-14T13:06:13.764Z,2.38
2017-05-14T13:08:41.132Z,2.20
2017-05-14T13:11:08.474Z,2.34
2017-05-14T13:13:35.610Z,2.40
2017-05-14T13:16:02.766Z,2.46
2017-05-14T13:18:29.875Z,3.12
2017-05-14T13:20:57.485Z,2.48
2017-05-14T13:23:25.041Z,3.12
2017-05-14T13:25:52.729Z,2.76
2017-05-14T13:28:20.299Z,2.68
2017-05-14T13:30:47.952Z,2.76
2017-05-14T13:33:15.268Z,2.46
2017-05-14T13:35:42.628Z,2.92
2017-05-14T13:38:10.837Z,2.60
2017-05-14T13:40:38.379Z,3.80
2017-05-14T13:43:06.922Z,3.36
2017-05-14T13:45:34.477Z,3.52
2017-05-14T13:48:01.858Z,3.58
2017-05-14T13:50:29.447Z,3.44
2017-05-14T13:52:57.061Z,3.60
2017-05-14T13:55:25.230Z,2.96
2017-05-14T13:57:53.416Z,3.18
2017-05-14T14:00:20.843Z,3.10
2017-05-14T14:02:48.261Z,3.18
2017-05-14T14:05:15.817Z,3.06
2017-05-14T14:07:43.226Z,3.54
2017-05-14T14:10:10.810Z,3.10
2017-05-14T14:12:38.195Z,3.68
2017-05-14T14:15:06.542Z,3.30
2017-05-14T14:17:34.022Z,2.88
2017-05-14T14:20:01.321Z,3.10
2017-05-14T14:22:43.729Z,3.30
2017-05-14T14:25:10.873Z,2.98
2017-05-14T14:27:38.002Z,2.64
2017-05-14T14:30:05.139Z,1.74
2017-05-14T14:32:32.270Z,2.62
2017-05-14T14:35:00.139Z,2.28
2017-05-14T14:37:28.029Z,3.16
2017-05-14T14:39:55.202Z,2.92
2017-05-14T14:42:22.301Z,2.60
2017-05-14T14:44:50.154Z,2.74
2017-05-14T14:47:17.273Z,2.54
2017-05-14T14:49:44.379Z,2.74
2017-05-14T14:52:11.602Z,2.56
2017-05-14T14:54:38.714Z,2.68
2017-05-14T14:57:05.883Z,2.98
2017-05-14T14:59:33.114Z,3.10
2017-05-14T15:02:00.234Z,3.28
2017-05-14T15:04:27.401Z,3.26
2017-05-14T15:06:54.508Z,3.08
2017-05-14T15:09:22.414Z,2.72
2017-05-14T15:11:49.549Z,3.50
2017-05-14T15:14:16.646Z,3.50
2017-05-14T15:16:43.846Z,3.42
2017-05-14T15:19:10.950Z,3.30
2017-05-14T15:21:38.047Z,2.70
2017-05-14T15:24:05.154Z,2.56
2017-05-14T15:26:32.301Z,2.54
2017-05-14T15:28:59.481Z,2.68
2017-05-14T15:31:26.769Z,1.90
2017-05-14T15:33:53.963Z,2.24
2017-05-14T15:36:21.086Z,2.02
2017-05-14T15:38:48.217Z,2.28
2017-05-14T15:41:15.335Z,6.64
2017-05-14T15:43:42.486Z,2.50
2017-05-14T15:46:09.842Z,2.32
2017-05-14T15:48:37.193Z,4.20
2017-05-14T15:51:04.510Z,1.96
2017-05-14T15:53:32.037Z,3.46
2017-05-14T15:55:59.601Z,3.22
2017-05-14T15:58:27.694Z,3.16
2017-05-14T16:00:55.045Z,2.34
2017-05-14T16:03:22.409Z,2.54
2017-05-14T16:05:49.794Z,2.20
2017-05-14T16:08:17.137Z,2.46
2017-05-14T16:10:44.537Z,2.16
2017-05-14T16:13:11.879Z,2.80
2017-05-14T16:15:39.453Z,2.06
2017-05-14T16:18:07.983Z,2.56
2017-05-14T16:20:35.337Z,2.62
2017-05-14T16:23:02.717Z,2.50
2017-05-14T16:25:30.166Z,2.44
2017-05-14T16:27:57.530Z,2.14
2017-05-14T16:30:24.889Z,2.54
2017-05-14T16:32:52.237Z,2.60
2017-05-14T16:35:19.696Z,2.46
2017-05-14T16:37:47.793Z,2.32
2017-05-14T16:40:14.534Z,2.78
2017-05-14T16:42:41.896Z,2.64
2017-05-14T16:45:09.337Z,2.80
2017-05-14T16:47:37.483Z,2.70
2017-05-14T16:50:04.866Z,2.70
2017-05-14T16:52:32.233Z,3.74
2017-05-14T16:55:00.358Z,1.64
2017-05-14T16:57:27.743Z,1.00
2017-05-14T16:59:55.097Z,1.36
2017-05-14T17:02:22.451Z,1.60
2017-05-14T17:04:50.526Z,2.90
2017-05-14T17:07:17.725Z,4.18
2017-05-14T17:09:45.072Z,2.98
2017-05-14T17:12:12.462Z,1.54
2017-05-14T17:14:40.562Z,1.88
2017-05-14T17:17:07.897Z,1.36
2017-05-14T17:19:35.165Z,1.50
2017-05-14T17:22:02.581Z,1.42
2017-05-14T17:24:29.940Z,1.10
2017-05-14T17:26:57.313Z,1.60
2017-05-14T17:29:24.695Z,1.14
2017-05-14T17:31:52.174Z,1.56
2017-05-14T17:34:19.453Z,1.26
2017-05-14T17:36:47.569Z,1.04
2017-05-14T17:39:14.925Z,1.70
2017-05-14T17:41:42.379Z,0.92
2017-05-14T17:44:09.838Z,1.40
2017-05-14T17:46:37.182Z,1.24
2017-05-14T17:49:04.557Z,1.10
2017-05-14T17:51:31.935Z,0.88
2017-05-14T17:53:59.519Z,0.84
2017-05-14T17:56:26.890Z,1.48
2017-05-14T17:58:55.134Z,1.40
2017-05-14T18:01:22.657Z,1.10
2017-05-14T18:03:50.054Z,0.94
2017-05-14T18:06:17.491Z,0.94
2017-05-14T18:08:44.858Z,1.32
2017-05-14T18:11:12.205Z,0.90
2017-05-14T18:13:39.574Z,0.96
2017-05-14T18:16:07.699Z,1.04
2017-05-14T18:18:35.093Z,1.10
2017-05-14T18:21:02.558Z,1.00
2017-05-14T18:23:30.725Z,1.08
2017-05-14T18:25:58.849Z,1.04
2017-05-14T18:28:27.250Z,1.20
2017-05-14T18:30:54.802Z,1.74
2017-05-14T18:33:22.280Z,1.18
2017-05-14T18:35:49.752Z,1.56
2017-05-14T18:38:18.861Z,1.28
2017-05-14T18:40:46.522Z,1.06
2017-05-14T18:43:19.709Z,1.58
2017-05-14T18:45:47.117Z,1.30
2017-05-14T18:48:14.460Z,1.84
2017-05-14T18:50:41.830Z,1.38
2017-05-14T18:53:09.954Z,1.50
2017-05-14T18:55:37.498Z,1.30
2017-05-14T18:58:05.669Z,1.80
2017-05-14T19:00:32.906Z,1.08
2017-05-14T19:03:00.273Z,1.04
2017-05-14T19:05:27.714Z,1.24
2017-05-14T19:07:55.156Z,1.82
2017-05-14T19:10:22.577Z,1.58
2017-05-14T19:12:49.964Z,1.32
2017-05-14T19:15:17.358Z,1.28
2017-05-14T19:17:44.791Z,1.18
2017-05-14T19:20:12.670Z,1.20
2017-05-14T19:22:40.103Z,1.30
2017-05-14T19:25:07.419Z,1.74
2017-05-14T19:27:35.642Z,1.60
2017-05-14T19:30:03.105Z,1.62
2017-05-14T19:32:31.273Z,1.80
2017-05-14T19:34:58.647Z,1.98
2017-05-14T19:37:26.232Z,2.12
2017-05-14T19:39:53.680Z,2.18
2017-05-14T19:42:21.074Z,2.18
2017-05-14T19:44:49.250Z,2.52
2017-05-14T19:47:17.382Z,2.84
2017-05-14T19:49:44.839Z,3.46
2017-05-14T19:52:12.237Z,4.08
2017-05-14T19:54:39.946Z,4.30
2017-05-14T19:57:07.526Z,4.50
2017-05-14T19:59:35.710Z,4.38
2017-05-14T20:02:03.854Z,6.90
2017-05-14T20:04:31.310Z,7.60
2017-05-14T20:06:58.711Z,7.80
2017-05-14T20:09:26.824Z,6.28
2017-05-14T20:11:54.214Z,8.32
2017-05-14T20:14:21.565Z,8.84
2017-05-14T20:16:49.017Z,11.12
2017-05-14T20:19:16.277Z,9.18
2017-05-14T20:21:43.665Z,10.02
2017-05-14T20:24:11.085Z,9.50
2017-05-14T20:26:38.467Z,9.40
2017-05-14T20:29:05.867Z,9.90
2017-05-14T20:31:33.242Z,11.16
2017-05-14T20:34:00.602Z,9.80
2017-05-14T20:36:27.963Z,11.38
2017-05-14T20:38:55.317Z,12.80
2017-05-14T20:41:28.931Z,15.58
2017-05-14T20:43:56.077Z,13.20
2017-05-14T20:46:23.204Z,13.66
2017-05-14T20:48:50.361Z,13.28
2017-05-14T20:51:18.457Z,13.46
2017-05-14T20:53:45.609Z,13.50
2017-05-14T20:56:13.548Z,11.72
2017-05-14T20:58:40.680Z,12.80
2017-05-14T21:01:22.734Z,13.16
2017-05-14T21:03:49.923Z,15.88
2017-05-14T21:06:17.065Z,13.76
2017-05-14T21:08:44.245Z,13.66
2017-05-14T21:11:11.357Z,13.58
2017-05-14T21:13:38.481Z,12.86
2017-05-14T21:16:06.327Z,12.26
2017-05-14T21:18:33.467Z,13.28
2017-05-14T21:21:01.381Z,12.52
2017-05-14T21:23:32.389Z,13.90
2017-05-14T21:26:00.573Z,15.96
2017-05-14T21:28:27.904Z,16.04
2017-05-14T21:30:56.176Z,17.38
2017-05-14T21:33:23.450Z,14.70
2017-05-14T21:35:50.696Z,15.70
2017-05-14T21:38:18.635Z,15.00
2017-05-14T21:40:45.765Z,15.84
2017-05-14T21:43:12.914Z,15.98
2017-05-14T21:45:40.050Z,12.72
2017-05-14T21:48:07.214Z,12.66
2017-05-14T21:50:34.333Z,12.46
2017-05-14T21:53:01.433Z,14.66
2017-05-14T21:55:29.402Z,15.92
2017-05-14T21:57:56.637Z,14.42
2017-05-14T22:00:23.778Z,14.00
2017-05-14T22:02:51.083Z,14.90
2017-05-14T22:05:18.202Z,14.12
2017-05-14T22:07:45.411Z,13.70
2017-05-14T22:10:12.837Z,14.08
2017-05-14T22:12:40.014Z,14.38
2017-05-14T22:15:07.558Z,14.36
2017-05-14T22:17:34.833Z,14.12
2017-05-14T22:20:02.409Z,13.20
2017-05-14T22:22:30.053Z,13.60
2017-05-14T22:24:57.486Z,12.02
2017-05-14T22:27:24.710Z,11.80
2017-05-14T22:29:52.266Z,10.64
2017-05-14T22:32:20.449Z,12.00
2017-05-14T22:34:47.713Z,10.34
2017-05-14T22:37:15.262Z,12.06
2017-05-14T22:39:42.857Z,12.32
2017-05-14T22:42:10.462Z,12.96
2017-05-14T22:44:38.754Z,13.44
2017-05-14T22:47:06.209Z,13.60
2017-05-14T22:49:33.743Z,12.70
2017-05-14T22:52:01.268Z,11.50
2017-05-14T22:54:28.770Z,11.88
2017-05-14T22:56:56.337Z,12.22
2017-05-14T22:59:23.865Z,14.14
2017-05-14T23:01:51.342Z,13.20
2017-05-14T23:04:18.693Z,11.62
2017-05-14T23:06:46.129Z,11.10
2017-05-14T23:09:13.685Z,13.04
2017-05-14T23:11:41.367Z,13.24
2017-05-14T23:14:08.934Z,13.28
2017-05-14T23:16:37.108Z,12.78
2017-05-14T23:19:04.712Z,13.88
2017-05-14T23:21:32.113Z,12.52
2017-05-14T23:23:59.751Z,12.56
2017-05-14T23:26:27.447Z,12.96
2017-05-14T23:28:55.018Z,15.30
2017-05-14T23:31:22.579Z,16.76
2017-05-14T23:33:50.023Z,13.52
2017-05-14T23:36:17.638Z,14.64
2017-05-14T23:38:45.157Z,15.18
2017-05-14T23:41:12.811Z,13.54
2017-05-14T23:43:40.348Z,14.52
2017-05-14T23:46:07.919Z,14.52
2017-05-14T23:48:36.074Z,15.22
2017-05-14T23:51:03.454Z,16.40
2017-05-14T23:53:31.033Z,14.88
2017-05-14T23:55:58.385Z,15.84
2017-05-14T23:58:26.098Z,16.94
